createdAt,value
2017-09-01T00:00:22.332Z,97340.22
2017-09-01T00:05:08.972Z,97335.81
2017-09-01T00:09:55.668Z,97331.52
2017-09-01T00:14:42.620Z,97340.77
2017-09-01T00:19:29.225Z,97343.81
2017-09-01T00:24:15.836Z,97333.82
2017-09-01T00:29:02.452Z,97323.64
2017-09-01T00:33:49.083Z,97313.47
2017-09-01T00:38:36.219Z,97304.06
2017-09-01T00:43:22.804Z,97307.83
2017-09-01T00:48:09.412Z,97297.08
2017-09-01T00:52:56.030Z,97296.20
2017-09-01T00:57:42.629Z,97299.48
2017-09-01T01:02:29.276Z,97305.39
2017-09-01T01:07:16.344Z,97305.80
2017-09-01T01:12:03.048Z,97304.30
2017-09-01T01:16:49.710Z,97313.31
2017-09-01T01:21:36.346Z,97311.63
2017-09-01T01:26:23.117Z,97313.17
2017-09-01T01:31:09.913Z,97308.31
2017-09-01T01:35:56.621Z,97295.30
2017-09-01T01:40:43.814Z,97299.46
2017-09-01T01:45:30.472Z,97300.88
2017-09-01T01:50:17.118Z,97288.66
2017-09-01T01:55:03.736Z,97285.91
2017-09-01T01:59:50.392Z,97277.20
2017-09-01T02:04:36.972Z,97284.06
2017-09-01T02:09:24.076Z,97291.83
2017-09-01T02:14:10.658Z,97292.39
2017-09-01T02:18:57.292Z,97294.54
2017-09-01T02:23:43.937Z,97285.45
2017-09-01T02:28:30.951Z,97290.59
2017-09-01T02:33:17.539Z,97289.11
2017-09-01T02:38:04.145Z,97273.53
2017-09-01T02:42:50.733Z,97266.50
2017-09-01T02:47:37.340Z,97264.33
2017-09-01T02:52:24.193Z,97262.13
2017-09-01T02:57:10.808Z,97264.51
2017-09-01T03:01:57.440Z,97259.59
2017-09-01T03:06:44.062Z,97252.44
2017-09-01T03:11:31.123Z,97240.36
2017-09-01T03:16:17.782Z,97223.81
2017-09-01T03:21:04.671Z,97233.87
2017-09-01T03:25:51.638Z,97233.45
2017-09-01T03:30:38.318Z,97224.47
2017-09-01T03:35:25.040Z,97227.02
2017-09-01T03:40:11.649Z,97225.20
2017-09-01T03:44:58.603Z,97227.05
2017-09-01T03:49:45.219Z,97226.67
2017-09-01T03:54:31.808Z,97223.09
2017-09-01T03:59:18.758Z,97210.55
2017-09-01T04:04:05.380Z,97197.75
2017-09-01T04:08:52.048Z,97205.53
2017-09-01T04:13:38.669Z,97210.50
2017-09-01T04:18:25.264Z,97204.55
2017-09-01T04:23:11.908Z,97198.58
2017-09-01T04:28:06.206Z,97191.11
2017-09-01T04:32:52.985Z,97194.37
2017-09-01T04:37:39.875Z,97197.56
2017-09-01T04:42:26.493Z,97193.25
2017-09-01T04:47:14.479Z,97195.98
2017-09-01T04:52:01.068Z,97186.69
2017-09-01T04:56:47.666Z,97182.61
2017-09-01T05:01:34.291Z,97177.73
2017-09-01T05:06:20.916Z,97163.66
2017-09-01T05:11:07.536Z,97163.38
2017-09-01T05:15:54.541Z,97159.38
2017-09-01T05:20:41.142Z,97150.21
2017-09-01T05:25:28.561Z,97155.28
2017-09-01T05:30:15.291Z,97160.21
2017-09-01T05:35:02.145Z,97159.38
2017-09-01T05:39:48.777Z,97158.59
2017-09-01T05:44:35.401Z,97159.38
2017-09-01T05:49:22.269Z,97160.67
2017-09-01T05:54:08.879Z,97166.16
2017-09-01T05:58:55.517Z,97188.80
2017-09-01T06:03:42.136Z,97203.95
2017-09-01T06:08:29.167Z,97207.76
2017-09-01T06:13:15.986Z,97223.44
2017-09-01T06:18:02.711Z,97218.49
2017-09-01T06:22:49.353Z,97209.60
2017-09-01T06:27:35.965Z,97216.94
2017-09-01T06:32:22.621Z,97229.13
2017-09-01T06:37:09.553Z,97224.75
2017-09-01T06:41:56.144Z,97211.28
2017-09-01T06:46:42.799Z,97214.02
2017-09-01T06:51:29.409Z,97202.11
2017-09-01T06:56:16.026Z,97197.02
2017-09-01T07:01:03.418Z,97184.34
2017-09-01T07:05:50.050Z,97188.33
2017-09-01T07:10:37.181Z,97185.64
2017-09-01T07:15:23.832Z,97172.34
2017-09-01T07:20:10.505Z,97179.79
2017-09-01T07:25:04.141Z,97187.97
2017-09-01T07:29:50.789Z,97196.80
2017-09-01T07:34:37.414Z,97194.97
2017-09-01T07:39:24.094Z,97187.98
2017-09-01T07:44:10.897Z,97177.52
2017-09-01T07:48:57.598Z,97161.88
2017-09-01T07:53:44.222Z,97200.55
2017-09-01T07:58:30.850Z,97210.53
2017-09-01T08:03:18.229Z,97221.81
2017-09-01T08:08:04.851Z,97217.13
2017-09-01T08:12:51.527Z,97217.86
2017-09-01T08:17:38.243Z,97226.28
2017-09-01T08:22:24.844Z,97220.18
2017-09-01T08:27:11.734Z,97213.45
2017-09-01T08:31:58.736Z,97206.70
2017-09-01T08:36:45.324Z,97213.91
2017-09-01T08:41:32.058Z,97214.57
2017-09-01T08:46:18.672Z,97210.98
2017-09-01T08:51:05.308Z,97200.97
2017-09-01T08:55:51.954Z,97208.90
2017-09-01T09:00:38.614Z,97201.95
2017-09-01T09:05:25.238Z,97199.52
2017-09-01T09:10:12.084Z,97190.25
2017-09-01T09:14:58.808Z,97198.38
2017-09-01T09:19:45.444Z,97203.63
2017-09-01T09:24:32.056Z,97206.17
2017-09-01T09:29:18.992Z,97212.01
2017-09-01T09:34:05.513Z,97215.66
2017-09-01T09:38:52.124Z,97214.54
2017-09-01T09:43:38.754Z,97210.34
2017-09-01T09:48:25.405Z,97211.41
2017-09-01T09:53:12.356Z,97200.70
2017-09-01T09:57:59.117Z,97201.75
2017-09-01T10:02:46.144Z,97212.23
2017-09-01T10:07:32.787Z,97212.30
2017-09-01T10:12:19.596Z,97208.41
2017-09-01T10:17:06.401Z,97205.55
2017-09-01T10:21:53.058Z,97196.98
2017-09-01T10:26:39.964Z,97201.15
2017-09-01T10:31:26.760Z,97207.55
2017-09-01T10:36:13.715Z,97213.55
2017-09-01T10:41:00.333Z,97216.63
2017-09-01T10:45:47.114Z,97221.53
2017-09-01T10:56:17.011Z,97214.52
2017-09-01T11:01:03.733Z,97216.82
2017-09-01T11:05:50.402Z,97223.94
2017-09-01T11:10:37.338Z,97215.76
2017-09-01T11:15:23.952Z,97226.27
2017-09-01T11:20:16.768Z,97225.84
2017-09-01T11:25:03.489Z,97208.94
2017-09-01T11:29:50.095Z,97210.04
2017-09-01T11:34:36.738Z,97211.02
2017-09-01T11:39:23.451Z,97201.61
2017-09-01T11:44:10.490Z,97194.12
2017-09-01T11:48:57.084Z,97188.98
2017-09-01T11:53:44.064Z,97184.89
2017-09-01T11:58:30.734Z,97186.19
2017-09-01T12:03:17.476Z,97175.85
2017-09-01T12:08:04.297Z,97164.72
2017-09-01T12:12:50.965Z,97165.17
2017-09-01T12:17:37.645Z,97176.61
2017-09-01T12:22:24.264Z,97168.98
2017-09-01T12:27:10.874Z,97156.45
2017-09-01T12:31:57.517Z,97150.83
2017-09-01T12:36:44.130Z,97146.89
2017-09-01T12:41:30.749Z,97145.86
2017-09-01T12:46:17.338Z,97135.58
2017-09-01T12:51:04.082Z,97137.03
2017-09-01T12:55:50.905Z,97144.53
2017-09-01T13:00:41.660Z,97142.56
2017-09-01T13:05:28.316Z,97145.84
2017-09-01T13:10:15.109Z,97150.50
2017-09-01T13:15:02.113Z,97172.37
2017-09-01T13:19:48.740Z,97165.80
2017-09-01T13:24:35.443Z,97173.34
2017-09-01T13:29:22.108Z,97178.57
2017-09-01T13:34:08.897Z,97181.13
2017-09-01T13:38:55.654Z,97178.75
2017-09-01T13:43:42.360Z,97179.45
2017-09-01T13:48:29.110Z,97176.11
2017-09-01T13:53:16.084Z,97176.56
2017-09-01T13:58:02.716Z,97166.55
2017-09-01T14:02:49.326Z,97150.00
2017-09-01T14:07:35.969Z,97151.58
2017-09-01T14:12:22.628Z,97154.08
2017-09-01T14:17:09.280Z,97135.09
2017-09-01T14:21:55.973Z,97140.75
2017-09-01T14:26:42.938Z,97127.08
2017-09-01T14:31:29.913Z,97125.69
2017-09-01T14:36:16.565Z,97120.29
2017-09-01T14:41:03.220Z,97131.52
2017-09-01T14:45:49.929Z,97147.88
2017-09-01T14:50:36.870Z,97146.16
2017-09-01T14:55:23.611Z,97147.81
2017-09-01T15:00:10.259Z,97140.88
2017-09-01T15:04:56.893Z,97149.55
2017-09-01T15:09:43.560Z,97159.84
2017-09-01T15:14:30.254Z,97153.73
2017-09-01T15:19:17.207Z,97148.29
2017-09-01T15:24:03.859Z,97160.97
2017-09-01T15:28:50.485Z,97166.05
2017-09-01T15:33:37.134Z,97176.40
2017-09-01T15:38:23.769Z,97168.20
2017-09-01T15:43:10.409Z,97175.03
2017-09-01T15:47:57.104Z,97167.94
2017-09-01T15:52:44.179Z,97160.33
2017-09-01T15:57:30.837Z,97164.16
2017-09-01T16:02:17.554Z,97160.59
2017-09-01T16:07:04.220Z,97165.33
2017-09-01T16:11:51.204Z,97162.72
2017-09-01T16:16:38.170Z,97160.05
2017-09-01T16:21:24.866Z,97149.64
2017-09-01T16:26:11.616Z,97136.69
2017-09-01T16:30:58.412Z,97134.95
2017-09-01T16:35:45.087Z,97141.66
2017-09-01T16:40:31.766Z,97124.30
2017-09-01T16:45:18.709Z,97128.98
2017-09-01T16:50:05.308Z,97133.91
2017-09-01T16:54:52.143Z,97150.89
2017-09-01T16:59:38.785Z,97156.53
2017-09-01T17:04:25.454Z,97150.81
2017-09-01T17:09:12.095Z,97148.47
2017-09-01T17:13:58.944Z,97144.28
2017-09-01T17:18:45.566Z,97136.91
2017-09-01T17:23:32.197Z,97129.91
2017-09-01T17:28:18.866Z,97134.55
2017-09-01T17:33:05.536Z,97145.17
2017-09-01T17:37:52.206Z,97152.65
2017-09-01T17:42:39.544Z,97144.61
2017-09-01T17:47:26.347Z,97150.87
2017-09-01T17:52:13.214Z,97158.30
2017-09-01T17:56:59.944Z,97161.09
2017-09-01T18:01:46.629Z,97169.11
2017-09-01T18:06:33.427Z,97166.85
2017-09-01T18:11:20.227Z,97161.03
2017-09-01T18:16:07.205Z,97159.39
2017-09-01T18:20:53.976Z,97155.73
2017-09-01T18:25:41.090Z,97158.81
2017-09-01T18:30:27.754Z,97157.81
2017-09-01T18:35:14.887Z,97158.27
2017-09-01T18:40:02.693Z,97160.21
2017-09-01T18:44:49.392Z,97170.23
2017-09-01T18:49:36.125Z,97164.95
2017-09-01T18:54:22.824Z,97170.40
2017-09-01T18:59:09.499Z,97162.30
2017-09-01T19:03:56.305Z,97169.84
2017-09-01T19:08:43.277Z,97171.29
2017-09-01T19:13:30.393Z,97171.83
2017-09-01T19:18:17.138Z,97166.31
2017-09-01T19:23:03.814Z,97173.22
2017-09-01T19:27:50.549Z,97162.99
2017-09-01T19:32:37.243Z,97154.42
2017-09-01T19:37:23.952Z,97154.82
2017-09-01T19:42:10.804Z,97146.52
2017-09-01T19:46:59.319Z,97148.07
2017-09-01T19:51:46.010Z,97155.97
2017-09-01T19:56:32.808Z,97155.69
2017-09-01T20:01:19.526Z,97155.78
2017-09-01T20:06:06.423Z,97153.95
2017-09-01T20:10:53.519Z,97146.88
2017-09-01T20:15:40.422Z,97148.40
2017-09-01T20:20:27.094Z,97134.66
2017-09-01T20:25:14.066Z,97151.91
2017-09-01T20:30:00.784Z,97159.34
2017-09-01T20:34:47.467Z,97166.70
2017-09-01T20:39:34.460Z,97164.01
2017-09-01T20:44:21.130Z,97169.17
2017-09-01T20:49:07.915Z,97165.55
2017-09-01T20:53:54.671Z,97166.58
2017-09-01T20:58:41.377Z,97170.98
2017-09-01T21:03:28.146Z,97171.89
2017-09-01T21:08:14.825Z,97168.05
2017-09-01T21:13:01.899Z,97165.28
2017-09-01T21:17:48.629Z,97169.84
2017-09-01T21:22:35.304Z,97172.28
2017-09-01T21:27:21.934Z,97173.48
2017-09-01T21:32:08.704Z,97174.77
2017-09-01T21:36:55.408Z,97181.26
2017-09-01T21:41:42.553Z,97185.92
2017-09-01T21:46:29.144Z,97176.08
2017-09-01T21:51:15.762Z,97168.00
2017-09-01T21:56:02.438Z,97177.52
2017-09-01T22:06:12.954Z,97179.83
2017-09-01T22:10:59.856Z,97179.60
2017-09-01T22:15:46.461Z,97173.19
2017-09-01T22:20:33.097Z,97178.59
2017-09-01T22:25:19.750Z,97184.12
2017-09-01T22:30:06.423Z,97182.51
2017-09-01T22:34:53.068Z,97172.39
2017-09-01T22:39:40.084Z,97159.06
2017-09-01T22:44:26.713Z,97159.09
2017-09-01T22:49:13.318Z,97153.94
2017-09-01T22:53:59.963Z,97160.55
2017-09-01T22:58:46.592Z,97151.17
2017-09-01T23:03:33.560Z,97151.30
2017-09-01T23:08:20.245Z,97143.89
2017-09-01T23:13:06.885Z,97142.72
2017-09-01T23:17:53.516Z,97142.52
2017-09-01T23:22:40.143Z,97139.79
2017-09-01T23:27:27.081Z,97130.64
2017-09-01T23:32:13.680Z,97132.44
2017-09-01T23:37:00.430Z,97123.41
2017-09-01T23:41:47.064Z,97123.73
2017-09-01T23:46:33.772Z,97124.20
2017-09-01T23:51:20.540Z,97131.71
2017-09-01T23:56:07.627Z,97120.05
